sensor_id;sensor_type;location;lat;lon;timestamp;temperature;humidity
17425;DHT22;8830;50.978;5.058;2023-04-01T00:01:52;10.80;99.90
17425;DHT22;8830;50.978;5.058;2023-04-01T00:04:20;10.80;99.90
17425;DHT22;8830;50.978;5.058;2023-04-01T00:06:48;10.80;99.90
17425;DHT22;8830;50.978;5.058;2023-04-01T00:09:15;10.80;99.90
17425;DHT22;8830;50.978;5.058;2023-04-01T00:11:42;10.80;99.90
17425;DHT22;8830;50.978;5.058;2023-04-01T00:14:10;10.80;99.90
17425;DHT22;8830;50.978;5.058;2023-04-01T00:16:37;10.70;99.90
17425;DHT22;8830;50.978;5.058;2023-04-01T00:19:06;10.80;99.90
17425;DHT22;8830;50.978;5.058;2023-04-01T00:21:34;10.80;99.90
17425;DHT22;8830;50.978;5.058;2023-04-01T00:24:02;10.90;99.90
17425;DHT22;8830;50.978;5.058;2023-04-01T00:26:29;10.80;99.90
17425;DHT22;8830;50.978;5.058;2023-04-01T00:28:56;10.70;99.90
17425;DHT22;8830;50.978;5.058;2023-04-01T00:31:24;10.80;99.90
17425;DHT22;8830;50.978;5.058;2023-04-01T00:33:51;10.80;99.90
17425;DHT22;8830;50.978;5.058;2023-04-01T00:36:21;10.80;99.90
17425;DHT22;8830;50.978;5.058;2023-04-01T00:38:49;10.80;99.90
17425;DHT22;8830;50.978;5.058;2023-04-01T00:41:16;10.90;99.90
17425;DHT22;8830;50.978;5.058;2023-04-01T00:43:45;10.80;99.90
17425;DHT22;8830;50.978;5.058;2023-04-01T00:46:13;11.00;99.90
17425;DHT22;8830;50.978;5.058;2023-04-01T00:48:43;10.80;99.90
17425;DHT22;8830;50.978;5.058;2023-04-01T00:51:14;10.70;99.90
17425;DHT22;8830;50.978;5.058;2023-04-01T00:53:45;10.70;99.90
17425;DHT22;8830;50.978;5.058;2023-04-01T00:56:15;10.70;99.90
17425;DHT22;8830;50.978;5.058;2023-04-01T00:58:49;10.80;99.90
17425;DHT22;8830;50.978;5.058;2023-04-01T01:01:19;10.70;99.90
17425;DHT22;8830;50.978;5.058;2023-04-01T01:03:47;10.70;99.90
17425;DHT22;8830;50.978;5.058;2023-04-01T01:06:23;11.00;99.90
17425;DHT22;8830;50.978;5.058;2023-04-01T01:09:06;10.70;99.90
17425;DHT22;8830;50.978;5.058;2023-04-01T01:11:40;10.70;99.90
17425;DHT22;8830;50.978;5.058;2023-04-01T01:14:15;10.80;99.90
17425;DHT22;8830;50.978;5.058;2023-04-01T01:16:48;10.70;99.90
17425;DHT22;8830;50.978;5.058;2023-04-01T01:19:30;10.70;99.90
17425;DHT22;8830;50.978;5.058;2023-04-01T01:22:20;10.80;99.90
17425;DHT22;8830;50.978;5.058;2023-04-01T01:25:07;10.70;99.90
17425;DHT22;8830;50.978;5.058;2023-04-01T01:27:37;10.70;99.90
17425;DHT22;8830;50.978;5.058;2023-04-01T01:30:19;10.70;99.90
17425;DHT22;8830;50.978;5.058;2023-04-01T01:33:12;10.80;99.90
17425;DHT22;8830;50.978;5.058;2023-04-01T01:35:46;10.70;99.90
17425;DHT22;8830;50.978;5.058;2023-04-01T01:38:17;10.70;99.90
17425;DHT22;8830;50.978;5.058;2023-04-01T01:40:47;10.70;99.90
17425;DHT22;8830;50.978;5.058;2023-04-01T01:43:21;10.70;99.90
17425;DHT22;8830;50.978;5.058;2023-04-01T01:45:52;10.70;99.90
17425;DHT22;8830;50.978;5.058;2023-04-01T01:48:21;10.70;99.90
17425;DHT22;8830;50.978;5.058;2023-04-01T01:50:50;10.80;99.90
17425;DHT22;8830;50.978;5.058;2023-04-01T01:53:17;10.70;99.90
17425;DHT22;8830;50.978;5.058;2023-04-01T01:55:46;10.80;99.90
17425;DHT22;8830;50.978;5.058;2023-04-01T01:58:17;11.30;99.90
17425;DHT22;8830;50.978;5.058;2023-04-01T02:00:49;10.70;99.90
17425;DHT22;8830;50.978;5.058;2023-04-01T02:03:17;10.80;99.90
17425;DHT22;8830;50.978;5.058;2023-04-01T02:05:49;10.70;99.90
17425;DHT22;8830;50.978;5.058;2023-04-01T02:08:21;10.70;99.90
17425;DHT22;8830;50.978;5.058;2023-04-01T02:10:55;10.80;99.90
17425;DHT22;8830;50.978;5.058;2023-04-01T02:13:28;10.70;99.90
17425;DHT22;8830;50.978;5.058;2023-04-01T02:16:00;10.80;99.90
17425;DHT22;8830;50.978;5.058;2023-04-01T02:18:31;10.70;99.90
17425;DHT22;8830;50.978;5.058;2023-04-01T02:21:02;10.80;99.90
17425;DHT22;8830;50.978;5.058;2023-04-01T02:23:32;10.80;99.90
17425;DHT22;8830;50.978;5.058;2023-04-01T02:26:00;10.80;99.90
17425;DHT22;8830;50.978;5.058;2023-04-01T02:28:28;10.70;99.90
17425;DHT22;8830;50.978;5.058;2023-04-01T02:33:23;10.80;99.90
17425;DHT22;8830;50.978;5.058;2023-04-01T02:35:51;10.80;99.90
17425;DHT22;8830;50.978;5.058;2023-04-01T02:38:19;10.80;99.90
17425;DHT22;8830;50.978;5.058;2023-04-01T02:40:49;10.80;99.90
17425;DHT22;8830;50.978;5.058;2023-04-01T02:43:17;10.70;99.90
17425;DHT22;8830;50.978;5.058;2023-04-01T02:45:45;10.70;99.90
17425;DHT22;8830;50.978;5.058;2023-04-01T02:53:08;10.60;99.90
17425;DHT22;8830;50.978;5.058;2023-04-01T02:55:36;10.70;99.90
17425;DHT22;8830;50.978;5.058;2023-04-01T03:00:30;10.60;99.90
17425;DHT22;8830;50.978;5.058;2023-04-01T03:02:57;10.60;99.90
17425;DHT22;8830;50.978;5.058;2023-04-01T03:07:51;10.60;99.90
17425;DHT22;8830;50.978;5.058;2023-04-01T03:10:18;10.60;99.90
17425;DHT22;8830;50.978;5.058;2023-04-01T03:12:47;10.60;99.90
17425;DHT22;8830;50.978;5.058;2023-04-01T03:15:15;11.20;99.90
17425;DHT22;8830;50.978;5.058;2023-04-01T03:17:42;10.50;99.90
17425;DHT22;8830;50.978;5.058;2023-04-01T03:20:10;10.50;99.90
17425;DHT22;8830;50.978;5.058;2023-04-01T03:27:39;10.50;99.90
17425;DHT22;8830;50.978;5.058;2023-04-01T03:32:37;10.50;99.90
17425;DHT22;8830;50.978;5.058;2023-04-01T03:37:32;10.50;99.90
17425;DHT22;8830;50.978;5.058;2023-04-01T03:40:00;10.50;99.90
17425;DHT22;8830;50.978;5.058;2023-04-01T03:42:27;10.60;99.90
17425;DHT22;8830;50.978;5.058;2023-04-01T03:44:54;10.50;99.90
17425;DHT22;8830;50.978;5.058;2023-04-01T03:47:22;10.50;99.90
17425;DHT22;8830;50.978;5.058;2023-04-01T03:52:17;10.50;99.90
17425;DHT22;8830;50.978;5.058;2023-04-01T03:54:43;10.50;99.90
17425;DHT22;8830;50.978;5.058;2023-04-01T03:57:11;10.50;99.90
17425;DHT22;8830;50.978;5.058;2023-04-01T03:59:38;10.40;99.90
17425;DHT22;8830;50.978;5.058;2023-04-01T04:02:06;11.20;99.90
17425;DHT22;8830;50.978;5.058;2023-04-01T04:04:34;10.40;99.90
17425;DHT22;8830;50.978;5.058;2023-04-01T04:07:01;10.40;99.90
17425;DHT22;8830;50.978;5.058;2023-04-01T04:09:30;10.50;99.90
17425;DHT22;8830;50.978;5.058;2023-04-01T04:11:57;12.00;99.90
17425;DHT22;8830;50.978;5.058;2023-04-01T04:14:24;10.40;99.90
17425;DHT22;8830;50.978;5.058;2023-04-01T04:16:51;10.40;99.90
17425;DHT22;8830;50.978;5.058;2023-04-01T04:19:18;10.30;99.90
17425;DHT22;8830;50.978;5.058;2023-04-01T04:21:47;11.90;99.90
17425;DHT22;8830;50.978;5.058;2023-04-01T04:24:14;10.30;99.90
17425;DHT22;8830;50.978;5.058;2023-04-01T04:26:41;10.40;99.90
17425;DHT22;8830;50.978;5.058;2023-04-01T04:29:08;10.30;99.90
17425;DHT22;8830;50.978;5.058;2023-04-01T04:31:35;10.30;99.90
17425;DHT22;8830;50.978;5.058;2023-04-01T04:34:02;10.30;99.90
17425;DHT22;8830;50.978;5.058;2023-04-01T04:36:29;10.30;99.90
17425;DHT22;8830;50.978;5.058;2023-04-01T04:41:27;10.30;99.90
17425;DHT22;8830;50.978;5.058;2023-04-01T04:43:55;10.20;99.90
17425;DHT22;8830;50.978;5.058;2023-04-01T04:48:52;10.30;99.90
17425;DHT22;8830;50.978;5.058;2023-04-01T04:51:19;10.30;99.90
17425;DHT22;8830;50.978;5.058;2023-04-01T04:53:47;10.30;99.90
17425;DHT22;8830;50.978;5.058;2023-04-01T04:56:19;9.50;99.90
17425;DHT22;8830;50.978;5.058;2023-04-01T04:58:46;10.20;99.90
17425;DHT22;8830;50.978;5.058;2023-04-01T05:01:15;10.30;99.90
17425;DHT22;8830;50.978;5.058;2023-04-01T05:03:42;10.20;99.90
17425;DHT22;8830;50.978;5.058;2023-04-01T05:06:11;10.30;99.90
17425;DHT22;8830;50.978;5.058;2023-04-01T05:08:39;10.20;99.90
17425;DHT22;8830;50.978;5.058;2023-04-01T05:11:09;10.20;99.90
17425;DHT22;8830;50.978;5.058;2023-04-01T05:13:40;10.30;99.90
17425;DHT22;8830;50.978;5.058;2023-04-01T05:16:09;10.30;99.90
17425;DHT22;8830;50.978;5.058;2023-04-01T05:25:59;10.30;99.90
17425;DHT22;8830;50.978;5.058;2023-04-01T05:30:58;10.20;99.90
17425;DHT22;8830;50.978;5.058;2023-04-01T05:35:53;10.30;99.90
17425;DHT22;8830;50.978;5.058;2023-04-01T05:48:11;10.30;99.90
17425;DHT22;8830;50.978;5.058;2023-04-01T05:55:35;10.30;99.90
17425;DHT22;8830;50.978;5.058;2023-04-01T05:58:03;10.30;99.90
17425;DHT22;8830;50.978;5.058;2023-04-01T06:00:31;10.30;99.90
17425;DHT22;8830;50.978;5.058;2023-04-01T06:05:39;10.30;99.90
17425;DHT22;8830;50.978;5.058;2023-04-01T06:08:11;10.30;99.90
17425;DHT22;8830;50.978;5.058;2023-04-01T06:10:51;10.30;99.90
17425;DHT22;8830;50.978;5.058;2023-04-01T06:13:27;10.30;99.90
17425;DHT22;8830;50.978;5.058;2023-04-01T06:16:04;10.30;99.90
17425;DHT22;8830;50.978;5.058;2023-04-01T06:19:03;10.30;99.90
17425;DHT22;8830;50.978;5.058;2023-04-01T06:25:17;10.30;99.90
17425;DHT22;8830;50.978;5.058;2023-04-01T06:27:56;10.30;99.90
17425;DHT22;8830;50.978;5.058;2023-04-01T06:30:34;10.40;99.90
17425;DHT22;8830;50.978;5.058;2023-04-01T06:33:13;10.40;99.90
17425;DHT22;8830;50.978;5.058;2023-04-01T06:38:57;10.30;99.90
17425;DHT22;8830;50.978;5.058;2023-04-01T06:41:53;10.30;99.90
17425;DHT22;8830;50.978;5.058;2023-04-01T06:44:31;10.30;99.90
17425;DHT22;8830;50.978;5.058;2023-04-01T06:47:09;10.40;99.90
17425;DHT22;8830;50.978;5.058;2023-04-01T06:49:49;10.40;99.90
17425;DHT22;8830;50.978;5.058;2023-04-01T06:52:26;10.40;99.90
17425;DHT22;8830;50.978;5.058;2023-04-01T06:54:58;10.50;99.90
17425;DHT22;8830;50.978;5.058;2023-04-01T06:57:32;10.50;99.90
17425;DHT22;8830;50.978;5.058;2023-04-01T07:00:04;10.50;99.90
17425;DHT22;8830;50.978;5.058;2023-04-01T07:02:41;10.60;99.90
17425;DHT22;8830;50.978;5.058;2023-04-01T07:05:11;10.50;99.90
17425;DHT22;8830;50.978;5.058;2023-04-01T07:07:41;10.50;99.90
17425;DHT22;8830;50.978;5.058;2023-04-01T07:10:13;10.50;99.90
17425;DHT22;8830;50.978;5.058;2023-04-01T07:12:47;10.60;99.90
17425;DHT22;8830;50.978;5.058;2023-04-01T07:15:19;10.50;99.90
17425;DHT22;8830;50.978;5.058;2023-04-01T07:17:52;10.50;99.90
17425;DHT22;8830;50.978;5.058;2023-04-01T07:20:23;10.50;99.90
17425;DHT22;8830;50.978;5.058;2023-04-01T07:22:54;10.50;99.90
17425;DHT22;8830;50.978;5.058;2023-04-01T07:25:25;10.50;99.90
17425;DHT22;8830;50.978;5.058;2023-04-01T07:27:59;10.40;99.90
17425;DHT22;8830;50.978;5.058;2023-04-01T07:30:30;10.50;99.90
17425;DHT22;8830;50.978;5.058;2023-04-01T07:33:04;10.50;99.90
17425;DHT22;8830;50.978;5.058;2023-04-01T07:35:38;10.50;99.90
17425;DHT22;8830;50.978;5.058;2023-04-01T07:38:16;10.60;99.90
17425;DHT22;8830;50.978;5.058;2023-04-01T07:40:53;10.60;99.90
17425;DHT22;8830;50.978;5.058;2023-04-01T07:46:46;10.70;99.90
17425;DHT22;8830;50.978;5.058;2023-04-01T07:49:19;10.70;99.90
17425;DHT22;8830;50.978;5.058;2023-04-01T07:51:54;10.80;99.90
17425;DHT22;8830;50.978;5.058;2023-04-01T07:54:32;11.00;99.90
17425;DHT22;8830;50.978;5.058;2023-04-01T07:57:03;10.90;99.90
17425;DHT22;8830;50.978;5.058;2023-04-01T07:59:38;10.90;99.90
17425;DHT22;8830;50.978;5.058;2023-04-01T08:02:18;10.90;99.90
17425;DHT22;8830;50.978;5.058;2023-04-01T08:04:56;10.90;99.90
17425;DHT22;8830;50.978;5.058;2023-04-01T08:07:31;11.00;99.90
17425;DHT22;8830;50.978;5.058;2023-04-01T08:10:04;11.00;99.90
17425;DHT22;8830;50.978;5.058;2023-04-01T08:12:46;10.90;99.90
17425;DHT22;8830;50.978;5.058;2023-04-01T08:15:21;11.00;99.90
17425;DHT22;8830;50.978;5.058;2023-04-01T08:17:58;11.10;99.90
17425;DHT22;8830;50.978;5.058;2023-04-01T08:20:33;11.00;99.90
17425;DHT22;8830;50.978;5.058;2023-04-01T08:23:07;11.10;99.90
17425;DHT22;8830;50.978;5.058;2023-04-01T08:25:40;12.10;99.90
17425;DHT22;8830;50.978;5.058;2023-04-01T08:28:13;11.20;99.90
17425;DHT22;8830;50.978;5.058;2023-04-01T08:30:47;11.30;99.90
17425;DHT22;8830;50.978;5.058;2023-04-01T08:33:19;11.40;99.90
17425;DHT22;8830;50.978;5.058;2023-04-01T08:35:51;11.40;99.90
17425;DHT22;8830;50.978;5.058;2023-04-01T08:38:24;11.50;99.90
17425;DHT22;8830;50.978;5.058;2023-04-01T08:40:59;11.40;99.90
17425;DHT22;8830;50.978;5.058;2023-04-01T08:43:59;11.60;99.90
17425;DHT22;8830;50.978;5.058;2023-04-01T08:47:12;11.60;99.90
17425;DHT22;8830;50.978;5.058;2023-04-01T08:50:12;11.60;99.90
17425;DHT22;8830;50.978;5.058;2023-04-01T08:52:51;11.60;99.90
17425;DHT22;8830;50.978;5.058;2023-04-01T08:55:44;11.60;99.90
17425;DHT22;8830;50.978;5.058;2023-04-01T09:01:26;11.50;99.90
17425;DHT22;8830;50.978;5.058;2023-04-01T09:04:32;11.60;99.90
17425;DHT22;8830;50.978;5.058;2023-04-01T09:07:19;11.60;99.90
17425;DHT22;8830;50.978;5.058;2023-04-01T09:10:22;11.70;99.90
17425;DHT22;8830;50.978;5.058;2023-04-01T09:13:09;11.70;99.90
17425;DHT22;8830;50.978;5.058;2023-04-01T09:16:08;11.80;99.90
17425;DHT22;8830;50.978;5.058;2023-04-01T09:22:23;12.20;99.90
17425;DHT22;8830;50.978;5.058;2023-04-01T09:27:56;12.30;99.90
17425;DHT22;8830;50.978;5.058;2023-04-01T09:30:55;12.30;99.90
17425;DHT22;8830;50.978;5.058;2023-04-01T09:34:15;12.40;99.90
17425;DHT22;8830;50.978;5.058;2023-04-01T09:36:59;12.50;99.90
17425;DHT22;8830;50.978;5.058;2023-04-01T09:39:37;12.50;99.90
17425;DHT22;8830;50.978;5.058;2023-04-01T09:45:08;12.50;99.90
17425;DHT22;8830;50.978;5.058;2023-04-01T09:47:50;12.50;99.90
17425;DHT22;8830;50.978;5.058;2023-04-01T09:50:30;12.50;99.90
17425;DHT22;8830;50.978;5.058;2023-04-01T09:53:07;12.40;99.90
17425;DHT22;8830;50.978;5.058;2023-04-01T09:56:27;12.40;99.90
17425;DHT22;8830;50.978;5.058;2023-04-01T10:02:35;12.40;99.90
17425;DHT22;8830;50.978;5.058;2023-04-01T10:08:51;12.50;99.90
17425;DHT22;8830;50.978;5.058;2023-04-01T10:17:44;12.80;99.90
17425;DHT22;8830;50.978;5.058;2023-04-01T10:20:37;12.70;99.90
17425;DHT22;8830;50.978;5.058;2023-04-01T10:23:29;12.70;99.90
17425;DHT22;8830;50.978;5.058;2023-04-01T10:26:42;12.60;99.90
17425;DHT22;8830;50.978;5.058;2023-04-01T10:29:45;12.40;99.90
17425;DHT22;8830;50.978;5.058;2023-04-01T10:33:06;12.40;99.90
17425;DHT22;8830;50.978;5.058;2023-04-01T10:39:20;12.30;99.90
17425;DHT22;8830;50.978;5.058;2023-04-01T10:42:28;12.30;99.90
17425;DHT22;8830;50.978;5.058;2023-04-01T10:45:24;11.80;99.90
17425;DHT22;8830;50.978;5.058;2023-04-01T10:48:17;12.10;99.90
17425;DHT22;8830;50.978;5.058;2023-04-01T10:51:04;12.10;99.90
17425;DHT22;8830;50.978;5.058;2023-04-01T10:56:41;12.30;99.90
17425;DHT22;8830;50.978;5.058;2023-04-01T11:02:52;12.30;99.90
17425;DHT22;8830;50.978;5.058;2023-04-01T11:05:54;12.10;99.90
17425;DHT22;8830;50.978;5.058;2023-04-01T11:09:12;12.10;99.90
17425;DHT22;8830;50.978;5.058;2023-04-01T11:15:04;12.00;99.90
17425;DHT22;8830;50.978;5.058;2023-04-01T11:24:18;12.10;99.90
17425;DHT22;8830;50.978;5.058;2023-04-01T11:26:54;12.10;99.90
17425;DHT22;8830;50.978;5.058;2023-04-01T11:29:54;12.20;99.90
17425;DHT22;8830;50.978;5.058;2023-04-01T11:32:36;12.30;99.90
17425;DHT22;8830;50.978;5.058;2023-04-01T11:37:55;12.20;99.90
17425;DHT22;8830;50.978;5.058;2023-04-01T11:40:29;12.20;99.90
17425;DHT22;8830;50.978;5.058;2023-04-01T11:43:02;12.10;99.90
17425;DHT22;8830;50.978;5.058;2023-04-01T11:45:36;12.10;99.90
17425;DHT22;8830;50.978;5.058;2023-04-01T11:48:26;12.40;99.90
17425;DHT22;8830;50.978;5.058;2023-04-01T11:53:59;13.00;99.90
17425;DHT22;8830;50.978;5.058;2023-04-01T11:56:55;13.00;99.90
17425;DHT22;8830;50.978;5.058;2023-04-01T12:02:41;12.90;99.90
17425;DHT22;8830;50.978;5.058;2023-04-01T12:05:29;12.70;99.90
17425;DHT22;8830;50.978;5.058;2023-04-01T12:08:09;12.80;99.90
17425;DHT22;8830;50.978;5.058;2023-04-01T12:10:46;12.80;99.90
17425;DHT22;8830;50.978;5.058;2023-04-01T12:13:24;12.90;99.90
17425;DHT22;8830;50.978;5.058;2023-04-01T12:16:08;12.70;99.90
17425;DHT22;8830;50.978;5.058;2023-04-01T12:18:42;12.50;99.90
17425;DHT22;8830;50.978;5.058;2023-04-01T12:21:20;12.50;99.90
17425;DHT22;8830;50.978;5.058;2023-04-01T12:26:59;12.20;99.90
17425;DHT22;8830;50.978;5.058;2023-04-01T12:29:48;12.10;99.90
17425;DHT22;8830;50.978;5.058;2023-04-01T12:32:24;12.10;99.90
17425;DHT22;8830;50.978;5.058;2023-04-01T12:35:08;12.10;99.90
17425;DHT22;8830;50.978;5.058;2023-04-01T12:37:47;12.10;99.90
17425;DHT22;8830;50.978;5.058;2023-04-01T12:40:40;12.20;99.90
17425;DHT22;8830;50.978;5.058;2023-04-01T12:43:46;12.20;99.90
17425;DHT22;8830;50.978;5.058;2023-04-01T12:46:24;12.20;99.90
17425;DHT22;8830;50.978;5.058;2023-04-01T12:49:19;12.20;99.90
17425;DHT22;8830;50.978;5.058;2023-04-01T12:52:05;12.30;99.90
17425;DHT22;8830;50.978;5.058;2023-04-01T12:55:00;12.40;99.90
17425;DHT22;8830;50.978;5.058;2023-04-01T13:00:35;12.70;99.90
17425;DHT22;8830;50.978;5.058;2023-04-01T13:03:20;12.60;99.90
17425;DHT22;8830;50.978;5.058;2023-04-01T13:06:25;12.60;99.90
17425;DHT22;8830;50.978;5.058;2023-04-01T13:09:00;12.60;99.90
17425;DHT22;8830;50.978;5.058;2023-04-01T13:11:37;12.50;99.90
17425;DHT22;8830;50.978;5.058;2023-04-01T13:14:50;12.30;99.90
17425;DHT22;8830;50.978;5.058;2023-04-01T13:17:23;12.30;99.90
17425;DHT22;8830;50.978;5.058;2023-04-01T13:19:57;12.30;99.90
17425;DHT22;8830;50.978;5.058;2023-04-01T13:22:33;12.30;99.90
17425;DHT22;8830;50.978;5.058;2023-04-01T13:25:08;12.40;99.90
17425;DHT22;8830;50.978;5.058;2023-04-01T13:27:43;12.50;99.90
17425;DHT22;8830;50.978;5.058;2023-04-01T13:30:23;12.50;99.90
17425;DHT22;8830;50.978;5.058;2023-04-01T13:32:59;12.40;99.90
17425;DHT22;8830;50.978;5.058;2023-04-01T13:35:35;12.40;99.90
17425;DHT22;8830;50.978;5.058;2023-04-01T13:38:32;12.40;99.90
17425;DHT22;8830;50.978;5.058;2023-04-01T13:41:13;12.60;99.90
17425;DHT22;8830;50.978;5.058;2023-04-01T13:43:49;12.90;99.90
17425;DHT22;8830;50.978;5.058;2023-04-01T13:46:38;13.00;99.90
17425;DHT22;8830;50.978;5.058;2023-04-01T13:49:26;12.80;99.90
17425;DHT22;8830;50.978;5.058;2023-04-01T13:52:30;12.80;99.90
17425;DHT22;8830;50.978;5.058;2023-04-01T13:55:25;12.70;99.90
17425;DHT22;8830;50.978;5.058;2023-04-01T14:00:55;12.60;99.90
17425;DHT22;8830;50.978;5.058;2023-04-01T14:03:54;13.10;99.90
17425;DHT22;8830;50.978;5.058;2023-04-01T14:06:31;12.40;99.90
17425;DHT22;8830;50.978;5.058;2023-04-01T14:09:30;12.50;99.90
17425;DHT22;8830;50.978;5.058;2023-04-01T14:12:06;12.40;99.90
17425;DHT22;8830;50.978;5.058;2023-04-01T14:14:51;12.40;99.90
17425;DHT22;8830;50.978;5.058;2023-04-01T14:17:39;12.40;99.90
17425;DHT22;8830;50.978;5.058;2023-04-01T14:20:36;12.50;99.90
17425;DHT22;8830;50.978;5.058;2023-04-01T14:23:39;12.70;99.90
17425;DHT22;8830;50.978;5.058;2023-04-01T14:26:26;12.70;99.90
17425;DHT22;8830;50.978;5.058;2023-04-01T14:29:05;12.70;99.90
17425;DHT22;8830;50.978;5.058;2023-04-01T14:31:48;12.70;99.90
17425;DHT22;8830;50.978;5.058;2023-04-01T14:34:34;12.70;99.90
17425;DHT22;8830;50.978;5.058;2023-04-01T14:37:19;12.50;99.90
17425;DHT22;8830;50.978;5.058;2023-04-01T14:40:19;12.50;99.90
17425;DHT22;8830;50.978;5.058;2023-04-01T14:42:59;12.40;99.90
17425;DHT22;8830;50.978;5.058;2023-04-01T14:45:46;12.40;99.90
17425;DHT22;8830;50.978;5.058;2023-04-01T14:48:27;12.40;99.90
17425;DHT22;8830;50.978;5.058;2023-04-01T14:51:02;12.40;99.90
17425;DHT22;8830;50.978;5.058;2023-04-01T14:53:34;12.40;99.90
17425;DHT22;8830;50.978;5.058;2023-04-01T14:56:05;12.40;99.90
17425;DHT22;8830;50.978;5.058;2023-04-01T14:58:43;12.40;99.90
17425;DHT22;8830;50.978;5.058;2023-04-01T15:01:26;12.50;99.90
17425;DHT22;8830;50.978;5.058;2023-04-01T15:04:09;12.60;99.90
17425;DHT22;8830;50.978;5.058;2023-04-01T15:06:57;12.50;99.90
17425;DHT22;8830;50.978;5.058;2023-04-01T15:09:33;12.50;99.90
17425;DHT22;8830;50.978;5.058;2023-04-01T15:12:17;12.70;99.90
17425;DHT22;8830;50.978;5.058;2023-04-01T15:14:54;14.10;99.90
17425;DHT22;8830;50.978;5.058;2023-04-01T15:17:48;12.40;99.90
17425;DHT22;8830;50.978;5.058;2023-04-01T15:20:38;12.50;99.90
17425;DHT22;8830;50.978;5.058;2023-04-01T15:23:21;12.40;99.90
17425;DHT22;8830;50.978;5.058;2023-04-01T15:26:05;12.40;99.90
17425;DHT22;8830;50.978;5.058;2023-04-01T15:28:40;12.40;99.90
17425;DHT22;8830;50.978;5.058;2023-04-01T15:31:14;12.50;99.90
17425;DHT22;8830;50.978;5.058;2023-04-01T15:33:56;12.60;99.90
17425;DHT22;8830;50.978;5.058;2023-04-01T15:39:09;12.80;99.90
17425;DHT22;8830;50.978;5.058;2023-04-01T15:41:43;12.90;99.90
17425;DHT22;8830;50.978;5.058;2023-04-01T15:44:50;12.90;99.90
17425;DHT22;8830;50.978;5.058;2023-04-01T15:47:38;12.80;99.90
17425;DHT22;8830;50.978;5.058;2023-04-01T15:50:46;12.70;99.90
17425;DHT22;8830;50.978;5.058;2023-04-01T15:53:42;12.70;99.90
17425;DHT22;8830;50.978;5.058;2023-04-01T15:56:36;12.70;99.90
17425;DHT22;8830;50.978;5.058;2023-04-01T15:59:21;11.90;99.90
17425;DHT22;8830;50.978;5.058;2023-04-01T16:01:59;12.20;99.90
17425;DHT22;8830;50.978;5.058;2023-04-01T16:04:43;12.00;99.90
17425;DHT22;8830;50.978;5.058;2023-04-01T16:07:26;12.10;99.90
17425;DHT22;8830;50.978;5.058;2023-04-01T16:12:53;12.10;99.90
17425;DHT22;8830;50.978;5.058;2023-04-01T16:15:35;12.10;99.90
17425;DHT22;8830;50.978;5.058;2023-04-01T16:18:26;12.10;99.90
17425;DHT22;8830;50.978;5.058;2023-04-01T16:21:02;12.20;99.90
17425;DHT22;8830;50.978;5.058;2023-04-01T16:23:37;12.00;99.90
17425;DHT22;8830;50.978;5.058;2023-04-01T16:26:12;12.10;99.90
17425;DHT22;8830;50.978;5.058;2023-04-01T16:28:49;12.00;99.90
17425;DHT22;8830;50.978;5.058;2023-04-01T16:31:30;11.80;99.90
17425;DHT22;8830;50.978;5.058;2023-04-01T16:34:04;11.70;99.90
17425;DHT22;8830;50.978;5.058;2023-04-01T16:36:37;11.70;99.90
17425;DHT22;8830;50.978;5.058;2023-04-01T16:39:27;11.60;99.90
17425;DHT22;8830;50.978;5.058;2023-04-01T16:44:49;11.60;99.90
17425;DHT22;8830;50.978;5.058;2023-04-01T16:47:19;11.60;99.90
17425;DHT22;8830;50.978;5.058;2023-04-01T16:49:52;11.50;99.90
17425;DHT22;8830;50.978;5.058;2023-04-01T16:52:41;11.60;99.90
17425;DHT22;8830;50.978;5.058;2023-04-01T16:55:15;11.40;99.90
17425;DHT22;8830;50.978;5.058;2023-04-01T16:57:46;11.40;99.90
17425;DHT22;8830;50.978;5.058;2023-04-01T17:00:23;11.20;99.90
17425;DHT22;8830;50.978;5.058;2023-04-01T17:02:58;11.10;99.90
17425;DHT22;8830;50.978;5.058;2023-04-01T17:05:43;11.10;99.90
17425;DHT22;8830;50.978;5.058;2023-04-01T17:08:21;11.10;99.90
17425;DHT22;8830;50.978;5.058;2023-04-01T17:10:53;10.90;99.90
17425;DHT22;8830;50.978;5.058;2023-04-01T17:13:38;10.90;99.90
17425;DHT22;8830;50.978;5.058;2023-04-01T17:19:36;10.80;99.90
17425;DHT22;8830;50.978;5.058;2023-04-01T17:22:13;10.80;99.90
17425;DHT22;8830;50.978;5.058;2023-04-01T17:24:55;10.80;99.90
17425;DHT22;8830;50.978;5.058;2023-04-01T17:27:39;10.80;99.90
17425;DHT22;8830;50.978;5.058;2023-04-01T17:30:31;10.80;99.90
17425;DHT22;8830;50.978;5.058;2023-04-01T17:33:15;10.70;99.90
17425;DHT22;8830;50.978;5.058;2023-04-01T17:35:56;10.80;99.90
17425;DHT22;8830;50.978;5.058;2023-04-01T17:38:47;10.80;99.90
17425;DHT22;8830;50.978;5.058;2023-04-01T17:41:25;15.50;99.90
17425;DHT22;8830;50.978;5.058;2023-04-01T17:44:00;10.80;99.90
17425;DHT22;8830;50.978;5.058;2023-04-01T17:46:40;10.70;99.90
17425;DHT22;8830;50.978;5.058;2023-04-01T17:49:23;10.70;99.90
17425;DHT22;8830;50.978;5.058;2023-04-01T17:51:59;10.70;99.90
17425;DHT22;8830;50.978;5.058;2023-04-01T17:54:48;10.60;99.90
17425;DHT22;8830;50.978;5.058;2023-04-01T18:00:23;10.60;99.90
17425;DHT22;8830;50.978;5.058;2023-04-01T18:13:49;10.50;99.90
17425;DHT22;8830;50.978;5.058;2023-04-01T18:16:30;10.50;99.90
17425;DHT22;8830;50.978;5.058;2023-04-01T18:19:06;6.40;99.90
17425;DHT22;8830;50.978;5.058;2023-04-01T18:21:43;10.60;99.90
17425;DHT22;8830;50.978;5.058;2023-04-01T18:26:49;10.60;99.90
17425;DHT22;8830;50.978;5.058;2023-04-01T18:31:55;10.60;99.90
17425;DHT22;8830;50.978;5.058;2023-04-01T18:34:40;10.50;99.90
17425;DHT22;8830;50.978;5.058;2023-04-01T18:39:48;10.40;99.90
17425;DHT22;8830;50.978;5.058;2023-04-01T18:42:29;10.40;99.90
17425;DHT22;8830;50.978;5.058;2023-04-01T18:45:02;10.60;99.90
17425;DHT22;8830;50.978;5.058;2023-04-01T18:47:43;10.40;99.90
17425;DHT22;8830;50.978;5.058;2023-04-01T18:50:18;12.30;99.90
17425;DHT22;8830;50.978;5.058;2023-04-01T18:52:48;10.50;99.90
17425;DHT22;8830;50.978;5.058;2023-04-01T18:55:30;10.40;99.90
17425;DHT22;8830;50.978;5.058;2023-04-01T18:58:22;10.40;99.90
17425;DHT22;8830;50.978;5.058;2023-04-01T19:01:01;10.40;99.90
17425;DHT22;8830;50.978;5.058;2023-04-01T19:03:36;10.40;99.90
17425;DHT22;8830;50.978;5.058;2023-04-01T19:06:15;10.40;99.90
17425;DHT22;8830;50.978;5.058;2023-04-01T19:08:44;10.40;99.90
17425;DHT22;8830;50.978;5.058;2023-04-01T19:11:20;10.40;99.90
17425;DHT22;8830;50.978;5.058;2023-04-01T19:13:58;10.40;99.90
17425;DHT22;8830;50.978;5.058;2023-04-01T19:16:38;10.30;99.90
17425;DHT22;8830;50.978;5.058;2023-04-01T19:19:33;10.40;99.90
17425;DHT22;8830;50.978;5.058;2023-04-01T19:22:17;10.30;99.90
17425;DHT22;8830;50.978;5.058;2023-04-01T19:25:15;10.30;99.90
17425;DHT22;8830;50.978;5.058;2023-04-01T19:27:50;10.40;99.90
17425;DHT22;8830;50.978;5.058;2023-04-01T19:30:40;11.20;99.90
17425;DHT22;8830;50.978;5.058;2023-04-01T19:33:22;10.40;99.90
17425;DHT22;8830;50.978;5.058;2023-04-01T19:35:58;10.40;99.90
17425;DHT22;8830;50.978;5.058;2023-04-01T19:38:31;10.30;99.90
17425;DHT22;8830;50.978;5.058;2023-04-01T19:41:15;10.40;99.90
17425;DHT22;8830;50.978;5.058;2023-04-01T19:43:59;10.40;99.90